Terminal Aerodrome Forecast
Issued by NWS Charleston, WV

Current Version | Previous Version | Graphics & Text | Print | Product List | Glossary On
Versions: 1 2 3 4 5 6 7 8 9 10 11 12 13 14 15 16 17 18 19 20 21 22
116
FTUS41 KRLX 131120
TAFCRW
TAF
KCRW 131120Z 1312/1412 25010KT P6SM FEW040
     FM131600 25005KT P6SM SCT060
     FM140500 24010KT P6SM OVC045
     FM140800 26010G22KT P6SM OVC025=

USA.gov is the U.S. government's official web portal to all federal, state and local government web resources and services.